createdAt,value
2018-12-09T00:01:55.952Z,99.90
2018-12-09T00:04:24.211Z,99.90
2018-12-09T00:06:53.269Z,99.90
2018-12-09T00:09:21.520Z,99.90
2018-12-09T00:11:49.747Z,99.90
2018-12-09T00:14:18.751Z,99.90
2018-12-09T00:16:47.017Z,99.90
2018-12-09T00:19:16.033Z,99.90
2018-12-09T00:21:44.303Z,99.90
2018-12-09T00:24:12.504Z,99.90
2018-12-09T00:26:40.755Z,99.90
2018-12-09T00:29:08.966Z,99.90
2018-12-09T00:31:37.213Z,99.90
2018-12-09T00:34:05.431Z,99.90
2018-12-09T00:36:33.921Z,99.90
2018-12-09T00:39:02.136Z,99.90
2018-12-09T00:41:31.159Z,99.90
2018-12-09T00:43:59.378Z,99.90
2018-12-09T00:46:27.580Z,99.90
2018-12-09T00:48:56.566Z,99.90
2018-12-09T00:51:25.591Z,99.90
2018-12-09T00:53:53.819Z,99.90
2018-12-09T00:56:22.130Z,99.90
2018-12-09T00:58:50.390Z,99.90
2018-12-09T01:01:19.393Z,99.90
2018-12-09T01:03:48.440Z,99.90
2018-12-09T01:06:16.648Z,99.90
2018-12-09T01:08:45.722Z,99.90
2018-12-09T01:11:13.922Z,99.90
2018-12-09T01:13:42.942Z,99.90
2018-12-09T01:16:11.201Z,99.90
2018-12-09T01:18:40.217Z,99.90
2018-12-09T01:21:08.489Z,99.90
2018-12-09T01:23:37.507Z,99.90
2018-12-09T01:26:06.412Z,99.90
2018-12-09T01:28:34.683Z,99.90
2018-12-09T01:31:02.903Z,99.90
2018-12-09T01:33:32.729Z,99.90
2018-12-09T01:36:01.769Z,99.90
2018-12-09T01:38:30.018Z,99.90
2018-12-09T01:40:58.273Z,99.90
2018-12-09T01:43:27.246Z,99.90
2018-12-09T01:45:55.846Z,99.90
2018-12-09T01:48:24.815Z,99.90
2018-12-09T01:50:53.071Z,99.90
2018-12-09T01:53:28.983Z,99.90
2018-12-09T01:55:58.058Z,99.90
2018-12-09T01:58:26.855Z,99.90
2018-12-09T02:00:55.898Z,99.90
2018-12-09T02:03:25.672Z,99.90
2018-12-09T02:05:54.698Z,99.90
2018-12-09T02:08:22.965Z,99.90
2018-12-09T02:10:51.752Z,99.90
2018-12-09T02:13:19.978Z,99.90
2018-12-09T02:15:48.178Z,99.90
2018-12-09T02:18:17.224Z,99.90
2018-12-09T02:20:45.423Z,99.90
2018-12-09T02:23:13.635Z,99.90
2018-12-09T02:25:42.608Z,99.90
2018-12-09T02:28:10.868Z,99.90
2018-12-09T02:30:39.068Z,99.90
2018-12-09T02:33:08.050Z,99.90
2018-12-09T02:35:36.310Z,99.90
2018-12-09T02:38:04.528Z,99.90
2018-12-09T02:40:33.558Z,99.90
2018-12-09T02:43:01.838Z,99.90
2018-12-09T02:45:30.080Z,99.90
2018-12-09T02:47:59.094Z,99.90
2018-12-09T02:50:27.417Z,99.90
2018-12-09T02:52:55.628Z,99.90
2018-12-09T02:55:24.662Z,99.90
2018-12-09T02:57:53.219Z,99.90
2018-12-09T03:00:22.201Z,99.90
2018-12-09T03:02:51.221Z,99.90
2018-12-09T03:05:19.432Z,99.90
2018-12-09T03:07:48.631Z,99.90
2018-12-09T03:10:16.880Z,99.90
2018-12-09T03:12:45.083Z,99.90
2018-12-09T03:15:13.301Z,99.90
2018-12-09T03:17:41.551Z,99.90
2018-12-09T03:20:09.809Z,99.90
2018-12-09T03:22:38.019Z,99.90
2018-12-09T03:25:07.019Z,99.90
2018-12-09T03:27:35.279Z,99.90
2018-12-09T03:30:03.516Z,99.90
2018-12-09T03:32:31.765Z,99.90
2018-12-09T03:35:00.020Z,99.90
2018-12-09T03:37:29.048Z,99.90
2018-12-09T03:39:57.290Z,99.90
2018-12-09T03:42:26.322Z,99.90
2018-12-09T03:44:54.570Z,99.90
2018-12-09T03:47:23.547Z,99.90
2018-12-09T03:49:51.799Z,99.90
2018-12-09T03:52:20.063Z,99.90
2018-12-09T03:54:49.082Z,99.90
2018-12-09T03:57:17.381Z,99.90
2018-12-09T03:59:46.401Z,99.90
2018-12-09T04:02:14.609Z,99.90
2018-12-09T04:04:42.873Z,99.90
2018-12-09T04:07:11.120Z,99.90
2018-12-09T04:09:40.725Z,99.90
2018-12-09T04:12:09.696Z,99.90
2018-12-09T04:14:38.689Z,99.90
2018-12-09T04:17:07.394Z,99.90
2018-12-09T04:19:36.349Z,99.90
2018-12-09T04:22:04.597Z,99.90
2018-12-09T04:24:32.894Z,99.90
2018-12-09T04:27:01.873Z,99.90
2018-12-09T04:29:30.659Z,99.90
2018-12-09T04:31:58.935Z,99.90
2018-12-09T04:34:28.667Z,99.90
2018-12-09T04:36:56.910Z,99.90
2018-12-09T04:39:25.135Z,99.90
2018-12-09T04:41:53.336Z,99.90
2018-12-09T04:44:23.124Z,99.90
2018-12-09T04:46:52.303Z,99.90
2018-12-09T04:49:20.561Z,99.90
2018-12-09T04:51:54.781Z,99.90
2018-12-09T04:54:23.065Z,99.90
2018-12-09T04:56:53.200Z,99.90
2018-12-09T04:59:21.446Z,99.90
2018-12-09T05:01:50.555Z,99.90
2018-12-09T05:04:18.808Z,99.90
2018-12-09T05:06:47.086Z,99.90
2018-12-09T05:09:15.311Z,99.90
2018-12-09T05:11:43.583Z,99.90
2018-12-09T05:14:11.805Z,99.90
2018-12-09T05:16:40.809Z,99.90
2018-12-09T05:19:11.762Z,99.90
2018-12-09T05:21:40.011Z,99.90
2018-12-09T05:24:09.048Z,99.90
2018-12-09T05:26:37.268Z,99.90
2018-12-09T05:29:05.492Z,99.90
2018-12-09T05:31:33.763Z,99.90
2018-12-09T05:34:01.971Z,99.90
2018-12-09T05:36:30.237Z,99.90
2018-12-09T05:38:58.487Z,99.90
2018-12-09T05:41:27.587Z,99.90
2018-12-09T05:43:55.794Z,99.90
2018-12-09T05:46:24.015Z,99.90
2018-12-09T05:48:53.009Z,99.90
2018-12-09T05:51:22.041Z,99.90
2018-12-09T05:53:52.953Z,99.90
2018-12-09T05:56:21.933Z,99.90
2018-12-09T05:58:50.177Z,99.90
2018-12-09T06:01:18.449Z,99.90
2018-12-09T06:03:46.761Z,99.90
2018-12-09T06:06:15.804Z,99.90
2018-12-09T06:08:44.752Z,99.90
2018-12-09T06:11:13.764Z,99.90
2018-12-09T06:13:41.983Z,99.90
2018-12-09T06:16:10.193Z,99.90
2018-12-09T06:18:39.179Z,99.90
2018-12-09T06:21:08.207Z,99.90
2018-12-09T06:23:36.431Z,99.90
2018-12-09T06:26:04.650Z,99.90
2018-12-09T06:28:32.881Z,99.90
2018-12-09T06:31:01.093Z,99.90
2018-12-09T06:33:30.303Z,99.90
2018-12-09T06:36:01.714Z,99.90
2018-12-09T06:38:30.582Z,99.90
2018-12-09T06:40:59.236Z,99.90
2018-12-09T06:43:27.616Z,99.90
2018-12-09T06:45:55.884Z,99.90
2018-12-09T06:48:24.913Z,99.90
2018-12-09T06:50:53.342Z,99.90
2018-12-09T06:53:21.820Z,99.90
2018-12-09T06:55:50.038Z,99.90
2018-12-09T06:58:18.250Z,99.90
2018-12-09T07:00:46.525Z,99.90
2018-12-09T07:03:14.794Z,99.90
2018-12-09T07:05:43.052Z,99.90
2018-12-09T07:08:11.314Z,99.90
2018-12-09T07:10:39.596Z,99.90
2018-12-09T07:13:08.481Z,99.90
2018-12-09T07:15:36.756Z,99.90
2018-12-09T07:18:08.004Z,99.90
2018-12-09T07:20:36.953Z,99.90
2018-12-09T07:23:05.159Z,99.90
2018-12-09T07:25:33.444Z,99.90
2018-12-09T07:28:01.638Z,99.90
2018-12-09T07:30:30.446Z,99.90
2018-12-09T07:32:59.806Z,99.90
2018-12-09T07:35:28.826Z,99.90
2018-12-09T07:37:57.122Z,99.90
2018-12-09T07:40:25.315Z,99.90
2018-12-09T07:42:53.548Z,99.90
2018-12-09T07:45:23.109Z,99.90
2018-12-09T07:47:51.370Z,99.90
2018-12-09T07:50:19.566Z,99.90
2018-12-09T07:52:48.535Z,99.90
2018-12-09T07:55:16.791Z,99.90
2018-12-09T07:57:45.077Z,99.90
2018-12-09T08:00:13.283Z,99.90
2018-12-09T08:02:41.556Z,99.90
2018-12-09T08:05:10.561Z,99.90
2018-12-09T08:07:38.830Z,99.90
2018-12-09T08:10:07.663Z,99.90
2018-12-09T08:12:35.905Z,99.90
2018-12-09T08:15:04.176Z,99.90
2018-12-09T08:17:32.439Z,99.90
2018-12-09T08:20:01.538Z,99.90
2018-12-09T08:22:30.497Z,99.90
2018-12-09T08:24:58.727Z,99.90
2018-12-09T08:27:27.081Z,99.90
2018-12-09T08:29:55.298Z,99.90
2018-12-09T08:32:25.143Z,99.90
2018-12-09T08:34:53.424Z,99.90
2018-12-09T08:37:21.668Z,99.90
2018-12-09T08:39:50.665Z,99.90
2018-12-09T08:42:19.689Z,99.90
2018-12-09T08:44:48.700Z,99.90
2018-12-09T08:47:17.003Z,99.90
2018-12-09T08:49:45.264Z,99.90
2018-12-09T08:52:13.846Z,99.90
2018-12-09T08:54:42.084Z,99.90
2018-12-09T08:57:10.331Z,99.90
2018-12-09T08:59:39.023Z,99.90
2018-12-09T09:02:07.208Z,99.90
2018-12-09T09:04:36.204Z,99.00
2018-12-09T09:07:04.469Z,99.30
2018-12-09T09:09:33.480Z,99.90
2018-12-09T09:12:02.457Z,99.90
2018-12-09T09:14:31.479Z,98.50
2018-12-09T09:16:59.754Z,98.00
2018-12-09T09:19:28.715Z,98.90
2018-12-09T09:21:56.990Z,96.50
2018-12-09T09:24:25.272Z,95.00
2018-12-09T09:29:34.553Z,99.90
2018-12-09T09:32:02.772Z,97.40
2018-12-09T09:34:31.031Z,99.90
2018-12-09T09:37:01.198Z,95.30
2018-12-09T09:39:29.392Z,96.10
2018-12-09T09:41:57.654Z,99.90
2018-12-09T09:44:25.953Z,99.90
2018-12-09T09:46:55.877Z,96.80
2018-12-09T09:49:24.156Z,97.10
2018-12-09T09:51:52.430Z,93.30
2018-12-09T09:54:21.406Z,99.90
2018-12-09T09:56:50.455Z,97.10
2018-12-09T09:59:18.667Z,96.70
2018-12-09T10:01:47.677Z,96.40
2018-12-09T10:04:16.661Z,95.50
2018-12-09T10:06:45.647Z,99.30
2018-12-09T10:09:14.735Z,98.00
2018-12-09T10:11:42.940Z,98.20
2018-12-09T10:14:11.977Z,92.70
2018-12-09T10:16:40.190Z,93.20
2018-12-09T10:19:10.107Z,97.70
2018-12-09T10:21:39.141Z,92.90
2018-12-09T10:24:07.398Z,92.80
2018-12-09T10:26:36.731Z,97.90
2018-12-09T10:29:04.650Z,98.00
2018-12-09T10:31:33.694Z,96.90
2018-12-09T10:34:01.885Z,97.30
2018-12-09T10:36:30.140Z,98.80
2018-12-09T10:38:59.123Z,97.70
2018-12-09T10:41:27.342Z,94.80
2018-12-09T10:43:55.571Z,97.30
2018-12-09T10:46:24.133Z,98.00
2018-12-09T10:48:53.179Z,97.40
2018-12-09T10:51:21.417Z,97.30
2018-12-09T10:53:49.660Z,97.20
2018-12-09T10:56:18.144Z,97.50
2018-12-09T10:58:46.357Z,97.80
2018-12-09T11:01:20.347Z,95.00
2018-12-09T11:03:51.759Z,96.60
2018-12-09T11:06:20.936Z,96.60
2018-12-09T11:08:49.151Z,99.20
2018-12-09T11:11:17.475Z,97.90
2018-12-09T11:13:45.703Z,98.40
2018-12-09T11:16:13.977Z,97.60
2018-12-09T11:18:42.504Z,99.50
2018-12-09T11:21:11.517Z,94.80
2018-12-09T11:23:39.793Z,94.80
2018-12-09T11:26:08.041Z,98.30
2018-12-09T11:28:37.048Z,99.00
2018-12-09T11:31:05.288Z,99.00
2018-12-09T11:33:33.531Z,93.20
2018-12-09T11:36:01.813Z,97.30
2018-12-09T11:38:30.066Z,99.20
2018-12-09T11:40:58.354Z,96.60
2018-12-09T11:43:26.603Z,94.10
2018-12-09T11:45:55.616Z,99.00
2018-12-09T11:48:23.886Z,99.00
2018-12-09T11:50:52.181Z,93.50
2018-12-09T11:53:20.427Z,94.90
2018-12-09T11:55:49.477Z,98.00
2018-12-09T11:58:17.677Z,98.10
2018-12-09T12:00:45.957Z,96.80
2018-12-09T12:03:14.215Z,98.50
2018-12-09T12:05:42.504Z,98.50
2018-12-09T12:08:10.767Z,96.30
2018-12-09T12:10:39.029Z,97.10
2018-12-09T12:13:07.319Z,96.70
2018-12-09T12:15:35.576Z,99.30
2018-12-09T12:18:03.847Z,99.20
2018-12-09T12:20:32.074Z,97.80
2018-12-09T12:23:01.087Z,95.90
2018-12-09T12:25:30.131Z,96.30
2018-12-09T12:27:58.327Z,96.30
2018-12-09T12:30:26.541Z,98.00
2018-12-09T12:32:54.789Z,98.10
2018-12-09T12:35:23.058Z,99.90
2018-12-09T12:37:51.319Z,98.70
2018-12-09T12:40:19.588Z,98.60
2018-12-09T12:42:47.837Z,98.10
2018-12-09T12:45:16.074Z,98.10
2018-12-09T12:47:45.127Z,99.90
2018-12-09T12:50:13.379Z,99.70
2018-12-09T12:52:41.654Z,97.70
2018-12-09T12:55:10.697Z,99.90
2018-12-09T12:57:38.954Z,99.90
2018-12-09T13:00:07.331Z,99.20
2018-12-09T13:02:35.596Z,99.90
2018-12-09T13:05:03.858Z,99.90
2018-12-09T13:07:32.087Z,99.90
2018-12-09T13:10:00.314Z,99.90
2018-12-09T13:12:28.611Z,99.10
2018-12-09T13:14:56.820Z,99.90
2018-12-09T13:17:25.070Z,99.90
2018-12-09T13:19:53.316Z,99.90
2018-12-09T13:22:23.283Z,99.90
2018-12-09T13:24:51.588Z,99.90
2018-12-09T13:27:19.772Z,99.90
2018-12-09T13:29:48.759Z,99.90
2018-12-09T13:32:18.403Z,99.90
2018-12-09T13:34:46.682Z,99.90
2018-12-09T13:37:17.043Z,99.90
2018-12-09T13:39:45.259Z,99.90
2018-12-09T13:42:14.310Z,99.90
2018-12-09T13:44:42.572Z,99.90
2018-12-09T13:47:10.830Z,99.90
2018-12-09T13:49:39.072Z,99.90
2018-12-09T13:52:08.088Z,99.90
2018-12-09T13:54:36.305Z,99.90
2018-12-09T13:57:04.562Z,99.90
2018-12-09T13:59:32.818Z,99.90
2018-12-09T14:02:01.866Z,99.90
2018-12-09T14:04:30.113Z,99.90
2018-12-09T14:06:58.347Z,99.90
2018-12-09T14:09:27.339Z,99.90
2018-12-09T14:11:55.558Z,99.90
2018-12-09T14:14:23.814Z,99.90
2018-12-09T14:16:52.878Z,99.90
2018-12-09T14:19:21.080Z,99.90
2018-12-09T14:21:49.315Z,99.90
2018-12-09T14:24:17.587Z,99.90
2018-12-09T14:26:45.848Z,99.90
2018-12-09T14:29:14.095Z,99.90
2018-12-09T14:31:42.405Z,99.90
2018-12-09T14:34:10.601Z,99.90
2018-12-09T14:36:38.827Z,99.90
2018-12-09T14:39:07.564Z,99.90
2018-12-09T14:41:35.885Z,99.90
2018-12-09T14:44:04.908Z,99.90
2018-12-09T14:46:33.155Z,99.90
2018-12-09T14:49:01.439Z,99.90
2018-12-09T14:51:30.419Z,99.90
2018-12-09T14:53:59.425Z,99.90
2018-12-09T14:56:27.643Z,99.90
2018-12-09T14:58:55.927Z,99.90
2018-12-09T15:01:24.149Z,99.90
2018-12-09T15:03:52.375Z,99.90
2018-12-09T15:06:20.604Z,99.90
2018-12-09T15:08:48.847Z,99.90
2018-12-09T15:11:17.060Z,99.90
2018-12-09T15:13:45.301Z,99.90
2018-12-09T15:16:13.525Z,99.90
2018-12-09T15:18:41.754Z,99.90
2018-12-09T15:21:10.035Z,99.90
2018-12-09T15:23:38.286Z,99.90
2018-12-09T15:26:06.506Z,99.90
2018-12-09T15:28:35.539Z,99.90
2018-12-09T15:31:03.810Z,99.90
2018-12-09T15:33:32.026Z,99.90
2018-12-09T15:36:00.253Z,99.90
2018-12-09T15:38:28.530Z,99.90
2018-12-09T15:40:56.748Z,99.90
2018-12-09T15:43:24.989Z,99.90
2018-12-09T15:45:53.219Z,99.90
2018-12-09T15:48:22.212Z,99.90
2018-12-09T15:50:51.215Z,99.90
2018-12-09T15:53:20.260Z,99.90
2018-12-09T15:55:48.508Z,99.90
2018-12-09T15:58:16.762Z,99.90
2018-12-09T16:00:50.575Z,99.90
2018-12-09T16:03:19.603Z,99.90
2018-12-09T16:05:48.143Z,99.90
2018-12-09T16:08:16.670Z,99.90
2018-12-09T16:10:44.910Z,99.90
2018-12-09T16:13:14.026Z,99.90
2018-12-09T16:15:42.560Z,99.90
2018-12-09T16:18:11.139Z,99.90
2018-12-09T16:20:39.353Z,99.90
2018-12-09T16:23:08.364Z,99.90
2018-12-09T16:25:36.631Z,99.90
2018-12-09T16:28:06.569Z,99.90
2018-12-09T16:30:34.810Z,99.90
2018-12-09T16:33:03.114Z,99.90
2018-12-09T16:35:31.406Z,99.90
2018-12-09T16:37:59.715Z,99.90
2018-12-09T16:40:27.940Z,99.90
2018-12-09T16:42:56.386Z,99.90
2018-12-09T16:45:24.657Z,99.90
2018-12-09T16:47:52.893Z,99.90
2018-12-09T16:50:21.136Z,99.90
2018-12-09T16:52:50.161Z,99.90
2018-12-09T16:55:18.401Z,99.90
2018-12-09T16:57:47.441Z,99.90
2018-12-09T17:00:15.696Z,99.90
2018-12-09T17:02:43.974Z,99.90
2018-12-09T17:05:12.946Z,99.90
2018-12-09T17:07:42.494Z,99.90
2018-12-09T17:10:11.045Z,99.90
2018-12-09T17:12:40.041Z,99.90
2018-12-09T17:15:09.153Z,99.90
2018-12-09T17:17:38.165Z,99.90
2018-12-09T17:20:06.741Z,99.90
2018-12-09T17:22:34.682Z,99.90
2018-12-09T17:25:03.654Z,99.90
2018-12-09T17:27:31.961Z,99.90
2018-12-09T17:30:00.989Z,99.90
2018-12-09T17:32:29.262Z,99.90
2018-12-09T17:34:57.511Z,99.90
2018-12-09T17:37:26.515Z,99.90
2018-12-09T17:39:54.740Z,99.90
2018-12-09T17:42:22.998Z,99.90
2018-12-09T17:44:52.236Z,99.90
2018-12-09T17:47:20.501Z,99.90
2018-12-09T17:49:48.766Z,99.90
2018-12-09T17:52:16.992Z,99.90
2018-12-09T17:54:45.249Z,99.90
2018-12-09T17:57:14.245Z,99.90
2018-12-09T17:59:43.280Z,99.90
2018-12-09T18:02:11.538Z,99.90
2018-12-09T18:04:39.762Z,99.90
2018-12-09T18:07:08.495Z,99.90
2018-12-09T18:09:36.741Z,99.90
2018-12-09T18:12:05.179Z,99.90
2018-12-09T18:14:33.938Z,99.90
2018-12-09T18:17:02.136Z,99.90
2018-12-09T18:19:30.390Z,99.90
2018-12-09T18:21:59.417Z,99.90
2018-12-09T18:24:27.626Z,99.90
2018-12-09T18:26:56.008Z,99.90
2018-12-09T18:29:24.250Z,99.90
2018-12-09T18:31:52.503Z,99.90
2018-12-09T18:34:20.788Z,99.90
2018-12-09T18:36:49.047Z,99.90
2018-12-09T18:39:18.023Z,99.90
2018-12-09T18:41:46.289Z,99.90
2018-12-09T18:44:14.581Z,99.90
2018-12-09T18:46:42.922Z,99.90
2018-12-09T18:49:11.193Z,99.90
2018-12-09T18:51:39.422Z,99.90
2018-12-09T18:54:08.562Z,99.90
2018-12-09T18:56:36.780Z,99.90
2018-12-09T18:59:05.031Z,99.90
2018-12-09T19:01:33.331Z,99.90
2018-12-09T19:04:01.632Z,99.90
2018-12-09T19:06:30.654Z,99.90
2018-12-09T19:08:58.894Z,99.90
2018-12-09T19:11:27.881Z,99.90
2018-12-09T19:13:56.913Z,99.90
2018-12-09T19:16:25.131Z,99.90
2018-12-09T19:18:53.400Z,99.90
2018-12-09T19:21:21.653Z,99.90
2018-12-09T19:23:49.948Z,99.90
2018-12-09T19:26:18.232Z,99.90
2018-12-09T19:28:46.577Z,99.90
2018-12-09T19:31:14.782Z,99.90
2018-12-09T19:33:43.029Z,99.90
2018-12-09T19:36:11.338Z,99.90
2018-12-09T19:38:40.339Z,99.90
2018-12-09T19:41:07.866Z,99.90
2018-12-09T19:43:36.948Z,99.90
2018-12-09T19:46:06.002Z,99.90
2018-12-09T19:48:34.432Z,99.90
2018-12-09T19:51:03.410Z,99.90
2018-12-09T19:53:32.471Z,99.90
2018-12-09T19:56:00.700Z,99.90
2018-12-09T19:58:28.979Z,99.90
2018-12-09T20:00:57.226Z,99.90
2018-12-09T20:03:25.418Z,99.90
2018-12-09T20:05:53.702Z,99.90
2018-12-09T20:08:21.919Z,99.90
2018-12-09T20:10:50.253Z,99.90
2018-12-09T20:13:19.332Z,99.90
2018-12-09T20:15:47.709Z,99.90
2018-12-09T20:18:15.959Z,99.90
2018-12-09T20:20:44.199Z,99.90
2018-12-09T20:23:12.762Z,99.90
2018-12-09T20:25:41.752Z,99.90
2018-12-09T20:28:10.757Z,99.90
2018-12-09T20:30:39.148Z,99.90
2018-12-09T20:33:07.390Z,99.90
2018-12-09T20:35:35.654Z,99.90
2018-12-09T20:38:04.082Z,99.90
2018-12-09T20:40:32.330Z,99.90
2018-12-09T20:43:01.364Z,99.90
2018-12-09T20:45:29.590Z,99.90
2018-12-09T20:47:58.575Z,99.90
2018-12-09T20:50:26.812Z,99.90
2018-12-09T20:52:55.043Z,99.90
2018-12-09T20:55:24.050Z,99.90
2018-12-09T20:57:53.041Z,99.90
2018-12-09T21:00:21.358Z,99.90
2018-12-09T21:02:49.947Z,99.90
2018-12-09T21:05:18.179Z,99.90
2018-12-09T21:07:47.178Z,99.90
2018-12-09T21:10:15.420Z,99.90
2018-12-09T21:12:43.685Z,99.90
2018-12-09T21:15:11.962Z,99.90
2018-12-09T21:17:40.209Z,99.90
2018-12-09T21:20:08.534Z,99.90
2018-12-09T21:22:36.770Z,99.90
2018-12-09T21:25:05.305Z,99.90
2018-12-09T21:27:33.569Z,99.90
2018-12-09T21:30:01.839Z,99.90
2018-12-09T21:32:30.096Z,99.90
2018-12-09T21:34:58.337Z,99.90
2018-12-09T21:37:27.377Z,99.90
2018-12-09T21:39:55.641Z,99.90
2018-12-09T21:42:23.915Z,99.90
2018-12-09T21:44:52.128Z,99.90
2018-12-09T21:47:20.353Z,99.90
2018-12-09T21:49:48.600Z,99.90
2018-12-09T21:52:17.613Z,99.90
2018-12-09T21:54:45.910Z,99.90
2018-12-09T21:57:14.894Z,99.90
2018-12-09T21:59:43.147Z,99.90
2018-12-09T22:02:12.172Z,99.90
2018-12-09T22:04:40.401Z,99.90
2018-12-09T22:07:09.376Z,99.90
2018-12-09T22:09:37.724Z,99.90
2018-12-09T22:12:05.917Z,99.90
2018-12-09T22:14:34.155Z,99.90
2018-12-09T22:17:02.451Z,99.90
2018-12-09T22:19:30.748Z,99.90
2018-12-09T22:21:58.991Z,99.90
2018-12-09T22:24:27.205Z,99.90
2018-12-09T22:26:55.425Z,99.90
2018-12-09T22:29:23.688Z,99.90
2018-12-09T22:31:51.892Z,99.90
2018-12-09T22:34:20.168Z,99.90
2018-12-09T22:36:48.399Z,99.90
2018-12-09T22:39:16.605Z,99.90
2018-12-09T22:41:44.892Z,99.90
2018-12-09T22:44:13.140Z,99.90
2018-12-09T22:46:41.421Z,99.90
2018-12-09T22:49:09.699Z,99.90
2018-12-09T22:51:37.926Z,99.90
2018-12-09T22:54:06.203Z,99.90
2018-12-09T22:56:34.453Z,99.90
2018-12-09T22:59:02.731Z,99.90
2018-12-09T23:01:31.751Z,99.90
2018-12-09T23:03:59.967Z,99.90
2018-12-09T23:06:28.247Z,99.90
2018-12-09T23:08:56.462Z,99.90
2018-12-09T23:11:24.688Z,99.90
2018-12-09T23:13:52.914Z,99.90
2018-12-09T23:16:21.165Z,99.90
2018-12-09T23:18:50.185Z,99.90
2018-12-09T23:21:18.412Z,99.90
2018-12-09T23:23:46.669Z,99.90
2018-12-09T23:26:14.880Z,99.90
2018-12-09T23:28:43.858Z,99.90
2018-12-09T23:31:12.130Z,99.90
2018-12-09T23:33:41.192Z,99.90
2018-12-09T23:36:09.449Z,99.90
2018-12-09T23:38:37.694Z,99.90
2018-12-09T23:41:05.924Z,99.90
2018-12-09T23:43:34.133Z,98.90
2018-12-09T23:46:02.405Z,95.10
2018-12-09T23:48:30.606Z,98.40
2018-12-09T23:51:00.180Z,96.20
2018-12-09T23:53:28.425Z,96.40
2018-12-09T23:55:56.702Z,94.40
2018-12-09T23:58:24.940Z,96.50
